Time;durP1;ratioP1;P1;durP2;ratioP2;P2;SDS_P1;SDS_P2;PMS_P1;PMS_P2;Temp;Humidity;BMP_temperature;BMP_pressure;BME280_temperature;BME280_humidity;BME280_pressure;Samples;Min_cycle;Max_cycle;Signal;HPM_P1;HPM_P2
2023/02/07 00:02:39;;;;;;;30.30;18.00;;;22.80;33.60;;;;;;6124706;28;83352;-51
2023/02/07 00:05:40;;;;;;;25.30;16.58;;;22.80;33.60;;;;;;6141737;28;85257;-49
2023/02/07 00:08:40;;;;;;;26.92;16.90;;;22.80;33.60;;;;;;6133050;28;83543;-51
2023/02/07 00:11:42;;;;;;;29.17;18.15;;;22.80;33.50;;;;;;6129188;28;83339;-52
2023/02/07 00:14:42;;;;;;;27.50;17.25;;;22.80;33.50;;;;;;6135457;28;83179;-50
2023/02/07 00:17:43;;;;;;;31.70;18.70;;;22.80;33.40;;;;;;6144627;28;84246;-49
2023/02/07 00:20:44;;;;;;;29.52;18.27;;;22.80;33.30;;;;;;6124481;28;83217;-50
2023/02/07 00:23:44;;;;;;;27.65;18.02;;;22.80;33.30;;;;;;6122355;28;84387;-49
2023/02/07 00:26:46;;;;;;;30.95;18.45;;;22.80;33.20;;;;;;6135516;28;83133;-51
2023/02/07 00:29:46;;;;;;;26.65;16.13;;;22.80;33.40;;;;;;6106729;28;83001;-50
2023/02/07 00:32:47;;;;;;;27.70;18.13;;;22.80;33.30;;;;;;6123989;28;84198;-52
2023/02/07 00:35:52;;;;;;;26.90;17.42;;;22.80;33.30;;;;;;6112231;28;86094;-48
2023/02/07 00:38:52;;;;;;;29.02;18.00;;;22.80;33.30;;;;;;6113515;28;83137;-47
2023/02/07 00:41:53;;;;;;;31.00;19.08;;;22.80;33.50;;;;;;6129994;28;84108;-51
2023/02/07 00:44:53;;;;;;;29.35;18.27;;;22.80;33.50;;;;;;6123067;28;84484;-50
2023/02/07 00:47:54;;;;;;;30.30;18.52;;;22.80;33.60;;;;;;6137479;28;83018;-51
2023/02/07 00:50:54;;;;;;;27.35;17.70;;;22.70;33.60;;;;;;6124036;28;82708;-50
2023/02/07 00:53:55;;;;;;;27.88;18.08;;;22.80;33.60;;;;;;6122536;28;85958;-52
2023/02/07 00:56:55;;;;;;;28.00;18.20;;;22.80;33.60;;;;;;6134989;28;87043;-49
2023/02/07 00:59:56;;;;;;;26.50;16.77;;;22.80;33.60;;;;;;6125202;28;84553;-52
2023/02/07 01:02:57;;;;;;;28.17;17.02;;;22.80;33.70;;;;;;6138920;28;85841;-48
2023/02/07 01:05:57;;;;;;;27.48;16.92;;;22.80;33.70;;;;;;6119124;28;83733;-52
2023/02/07 01:08:59;;;;;;;27.95;17.50;;;22.70;33.60;;;;;;6129103;28;83321;-48
2023/02/07 01:12:01;;;;;;;27.52;16.35;;;22.70;33.70;;;;;;6130362;28;86156;-51
2023/02/07 01:15:02;;;;;;;30.52;17.48;;;22.70;33.80;;;;;;6124158;28;83174;-51
2023/02/07 01:18:02;;;;;;;28.55;17.60;;;22.70;33.80;;;;;;6113875;28;82924;-52
2023/02/07 01:21:03;;;;;;;30.50;18.23;;;22.70;34.50;;;;;;6102619;28;83478;-54
2023/02/07 01:24:03;;;;;;;27.67;17.85;;;22.70;33.60;;;;;;6122259;28;84826;-51
2023/02/07 01:27:04;;;;;;;28.77;18.58;;;22.70;33.70;;;;;;6130593;28;83029;-52
2023/02/07 01:30:05;;;;;;;34.83;20.38;;;22.70;33.50;;;;;;6136891;28;84596;-51
2023/02/07 01:33:05;;;;;;;32.75;19.77;;;22.70;33.40;;;;;;6139539;28;85176;-50
2023/02/07 01:36:06;;;;;;;36.00;21.75;;;22.70;33.30;;;;;;6133306;28;82942;-53
2023/02/07 01:39:06;;;;;;;35.08;22.30;;;22.70;33.20;;;;;;6123696;28;85625;-51
2023/02/07 01:42:07;;;;;;;37.70;23.42;;;22.70;33.00;;;;;;6135734;28;82935;-47
2023/02/07 01:45:08;;;;;;;37.50;23.88;;;22.80;33.00;;;;;;6134906;28;84310;-50
2023/02/07 01:48:08;;;;;;;39.70;25.17;;;22.70;32.80;;;;;;6123953;28;83336;-47
2023/02/07 01:51:09;;;;;;;41.30;25.85;;;22.70;32.60;;;;;;6120696;28;85093;-51
2023/02/07 01:54:09;;;;;;;43.85;26.95;;;22.80;32.50;;;;;;6123802;28;82771;-50
2023/02/07 01:57:10;;;;;;;46.42;28.02;;;22.70;32.30;;;;;;6121950;28;86283;-54
2023/02/07 02:00:11;;;;;;;48.22;27.90;;;22.70;32.20;;;;;;6135148;28;84618;-48
2023/02/07 02:03:20;;;;;;;46.10;27.88;;;22.70;32.10;;;;;;6135233;28;83766;-51
2023/02/07 02:06:21;;;;;;;47.13;29.95;;;22.70;32.20;;;;;;6133709;28;83166;-52
2023/02/07 02:09:21;;;;;;;48.95;28.83;;;22.70;31.90;;;;;;6128303;28;83157;-50
2023/02/07 02:12:22;;;;;;;49.75;29.98;;;22.70;31.90;;;;;;6127164;28;83435;-53
2023/02/07 02:15:22;;;;;;;51.58;30.75;;;22.70;31.90;;;;;;6124094;28;83394;-53
2023/02/07 02:18:23;;;;;;;52.55;30.60;;;22.70;31.90;;;;;;6124573;28;84446;-52
2023/02/07 02:21:24;;;;;;;50.22;29.85;;;22.70;31.90;;;;;;6130525;28;83933;-53
2023/02/07 02:24:24;;;;;;;53.58;31.98;;;22.70;32.10;;;;;;6125851;28;83189;-50
2023/02/07 02:27:25;;;;;;;54.10;31.38;;;22.70;32.00;;;;;;6103959;28;83573;-53
2023/02/07 02:30:25;;;;;;;48.60;29.98;;;22.70;32.10;;;;;;6112300;28;84512;-50
2023/02/07 02:33:26;;;;;;;50.05;30.35;;;22.70;32.10;;;;;;6122932;28;85722;-53
2023/02/07 02:36:27;;;;;;;48.22;30.85;;;22.70;31.90;;;;;;6121628;28;82996;-55
2023/02/07 02:39:27;;;;;;;50.30;30.35;;;22.70;31.90;;;;;;6119564;28;83389;-55
2023/02/07 02:42:29;;;;;;;48.78;30.63;;;22.70;31.90;;;;;;6114886;28;83394;-53
2023/02/07 02:45:30;;;;;;;52.40;31.77;;;22.70;32.10;;;;;;6114843;28;85608;-53
2023/02/07 02:48:30;;;;;;;54.55;33.25;;;22.70;32.00;;;;;;6124179;28;83958;-55
2023/02/07 02:51:31;;;;;;;54.35;32.15;;;22.70;32.10;;;;;;6124602;28;82843;-52
2023/02/07 02:54:33;;;;;;;53.38;32.67;;;22.70;32.00;;;;;;6125724;28;85534;-53
2023/02/07 02:57:38;;;;;;;51.77;32.20;;;22.70;32.00;;;;;;6143127;28;85449;-53
2023/02/07 03:00:38;;;;;;;51.40;29.80;;;22.70;31.90;;;;;;6104855;28;83669;-50
2023/02/07 03:03:39;;;;;;;56.97;32.72;;;22.70;32.20;;;;;;6112120;28;83986;-54
2023/02/07 03:06:39;;;;;;;48.28;30.50;;;22.70;32.00;;;;;;6115890;28;86018;-53
2023/02/07 03:09:42;;;;;;;52.92;31.80;;;22.70;32.10;;;;;;6142414;28;85973;-54
2023/02/07 03:12:43;;;;;;;52.72;30.45;;;22.70;32.20;;;;;;6119748;28;82803;-54
2023/02/07 03:15:43;;;;;;;47.72;29.88;;;22.70;32.30;;;;;;6117322;28;83137;-52
2023/02/07 03:18:44;;;;;;;52.10;29.75;;;22.70;32.40;;;;;;6132432;28;83953;-55
2023/02/07 03:21:45;;;;;;;48.08;29.67;;;22.70;32.60;;;;;;6108422;28;85809;-52
2023/02/07 03:24:45;;;;;;;46.78;28.63;;;22.70;32.60;;;;;;6138993;28;83102;-52
2023/02/07 03:27:47;;;;;;;51.17;29.83;;;22.70;32.70;;;;;;6121135;28;86372;-53
2023/02/07 03:30:49;;;;;;;48.08;29.42;;;22.70;32.60;;;;;;6139363;28;83559;-53
2023/02/07 03:33:50;;;;;;;50.15;29.13;;;22.70;32.70;;;;;;6135344;28;82970;-51
2023/02/07 03:36:50;;;;;;;43.10;27.27;;;22.70;32.80;;;;;;6129372;28;83221;-52
2023/02/07 03:39:51;;;;;;;48.35;29.23;;;22.70;32.80;;;;;;6120589;28;83272;-52
2023/02/07 03:42:51;;;;;;;46.10;28.85;;;22.70;32.60;;;;;;6118705;28;83009;-51
2023/02/07 03:45:52;;;;;;;42.58;26.23;;;22.70;32.90;;;;;;6112777;28;83059;-69
2023/02/07 03:48:52;;;;;;;43.10;26.77;;;22.70;32.80;;;;;;6107784;28;83226;-68
2023/02/07 03:51:53;;;;;;;40.22;25.15;;;22.70;32.90;;;;;;6103885;28;83539;-67
2023/02/07 03:54:54;;;;;;;40.55;24.23;;;22.70;32.80;;;;;;6117212;28;83446;-66
2023/02/07 03:57:54;;;;;;;43.65;25.65;;;22.70;33.00;;;;;;6125087;28;86427;-67
2023/02/07 04:00:55;;;;;;;37.90;24.02;;;22.70;33.10;;;;;;6105841;28;84174;-68
2023/02/07 04:03:55;;;;;;;40.20;24.13;;;22.70;33.20;;;;;;6126769;28;83034;-69
2023/02/07 04:06:56;;;;;;;39.10;23.23;;;22.60;33.20;;;;;;6123846;28;83635;-65
2023/02/07 04:09:57;;;;;;;38.75;24.02;;;22.60;33.30;;;;;;6112277;28;83147;-65
2023/02/07 04:12:58;;;;;;;38.53;22.50;;;22.60;33.30;;;;;;6123875;28;84446;-66
2023/02/07 04:15:58;;;;;;;33.92;22.75;;;22.60;33.20;;;;;;6125432;28;82967;-67
2023/02/07 04:18:59;;;;;;;37.33;22.90;;;22.60;33.20;;;;;;6123411;28;83400;-66
2023/02/07 04:22:00;;;;;;;37.70;23.48;;;22.50;33.00;;;;;;6114713;28;83114;-63
2023/02/07 04:25:00;;;;;;;35.83;23.15;;;22.50;33.00;;;;;;6137476;28;83332;-50
2023/02/07 04:28:01;;;;;;;38.35;23.42;;;22.50;32.80;;;;;;6110393;28;85157;-48
2023/02/07 04:31:01;;;;;;;36.30;23.33;;;22.50;32.70;;;;;;6104521;28;83233;-54
2023/02/07 04:34:02;;;;;;;37.17;23.55;;;22.40;32.70;;;;;;6106142;28;85036;-53
2023/02/07 04:37:03;;;;;;;36.22;22.20;;;22.40;32.50;;;;;;6100802;28;83045;-55
2023/02/07 04:40:03;;;;;;;34.47;22.13;;;22.40;33.00;;;;;;6110098;28;84173;-55
2023/02/07 04:43:04;;;;;;;38.88;23.63;;;22.40;33.60;;;;;;6106316;28;86009;-50
2023/02/07 04:46:04;;;;;;;35.63;20.58;;;22.40;33.00;;;;;;6117742;28;83001;-51
2023/02/07 04:49:05;;;;;;;36.42;22.55;;;22.40;33.60;;;;;;6114759;28;83445;-53
2023/02/07 04:52:05;;;;;;;33.90;21.55;;;22.40;33.60;;;;;;6109443;28;90188;-54
2023/02/07 04:55:06;;;;;;;33.83;20.30;;;22.40;33.40;;;;;;6116016;28;83922;-54
2023/02/07 04:58:07;;;;;;;34.00;20.45;;;22.30;33.60;;;;;;6113592;28;83356;-55
2023/02/07 05:01:07;;;;;;;31.42;20.13;;;22.30;34.00;;;;;;6110973;28;83203;-50
2023/02/07 05:04:08;;;;;;;34.17;19.95;;;22.30;33.90;;;;;;6119961;28;83018;-54
2023/02/07 05:07:08;;;;;;;33.83;21.60;;;22.30;33.90;;;;;;6099042;28;84201;-57
2023/02/07 05:10:09;;;;;;;35.67;20.73;;;22.30;34.00;;;;;;6116470;28;83644;-60
2023/02/07 05:13:09;;;;;;;34.97;21.10;;;22.30;34.20;;;;;;6114495;28;83487;-59
2023/02/07 05:16:11;;;;;;;31.92;19.83;;;22.30;33.90;;;;;;6106938;28;90247;-66
2023/02/07 05:19:12;;;;;;;34.60;21.20;;;22.30;33.70;;;;;;6131163;28;84234;-60
2023/02/07 05:22:12;;;;;;;35.55;22.27;;;22.30;33.80;;;;;;6102649;28;83287;-69
2023/02/07 05:25:13;;;;;;;35.63;21.90;;;22.30;33.90;;;;;;6104503;28;83693;-67
2023/02/07 05:28:13;;;;;;;36.15;21.58;;;22.20;33.60;;;;;;6099326;28;82855;-56
2023/02/07 05:31:14;;;;;;;35.42;21.00;;;22.20;33.70;;;;;;6108119;28;83207;-63
2023/02/07 05:34:14;;;;;;;39.78;22.40;;;22.20;33.30;;;;;;6100619;28;83020;-65
2023/02/07 05:37:15;;;;;;;33.00;21.30;;;22.20;32.90;;;;;;6109596;28;83421;-53
2023/02/07 05:40:16;;;;;;;38.60;22.67;;;22.10;32.70;;;;;;6112919;28;84181;-62
2023/02/07 05:43:16;;;;;;;35.63;21.70;;;22.10;32.70;;;;;;6110020;28;82906;-54
2023/02/07 05:46:17;;;;;;;38.47;21.92;;;22.10;32.80;;;;;;6109537;28;83508;-58
2023/02/07 05:49:17;;;;;;;35.40;22.00;;;22.10;32.70;;;;;;6105323;28;82994;-51
2023/02/07 05:52:18;;;;;;;36.33;21.52;;;22.10;32.80;;;;;;6114945;28;83595;-53
2023/02/07 05:55:18;;;;;;;36.72;21.17;;;22.00;32.70;;;;;;6139484;28;82977;-52
2023/02/07 05:58:19;;;;;;;42.50;21.85;;;22.00;32.70;;;;;;6128818;28;84413;-52
2023/02/07 06:01:19;;;;;;;35.10;20.98;;;22.00;32.60;;;;;;6105010;28;83771;-52
2023/02/07 06:04:20;;;;;;;39.90;21.90;;;21.90;32.50;;;;;;6123010;28;83931;-52
2023/02/07 06:07:21;;;;;;;37.95;21.33;;;21.90;32.40;;;;;;6110530;28;83559;-50
2023/02/07 06:10:21;;;;;;;39.53;23.48;;;21.80;32.20;;;;;;6103398;28;83743;-52
2023/02/07 06:13:22;;;;;;;35.35;20.95;;;21.90;32.20;;;;;;6125459;28;83315;-50
2023/02/07 06:16:22;;;;;;;34.80;20.73;;;21.80;32.10;;;;;;6109692;28;83867;-54
2023/02/07 06:19:23;;;;;;;36.65;21.75;;;21.80;32.00;;;;;;6100690;28;84544;-53
2023/02/07 06:22:23;;;;;;;36.75;22.70;;;21.70;32.20;;;;;;6089545;28;83787;-55
2023/02/07 06:25:24;;;;;;;34.65;22.05;;;21.70;32.00;;;;;;6103987;28;86311;-54
2023/02/07 06:28:24;;;;;;;39.15;23.08;;;21.70;31.80;;;;;;6130770;28;83481;-55
2023/02/07 06:31:25;;;;;;;40.75;23.77;;;21.70;31.50;;;;;;6133609;28;85667;-55
2023/02/07 06:34:25;;;;;;;41.80;24.83;;;21.70;31.30;;;;;;6117853;28;84683;-55
2023/02/07 06:37:26;;;;;;;37.38;24.13;;;21.60;31.20;;;;;;6115660;28;83458;-54
2023/02/07 06:40:26;;;;;;;43.67;26.35;;;21.60;31.00;;;;;;6114095;28;84471;-52
2023/02/07 06:43:27;;;;;;;43.38;26.67;;;21.60;30.90;;;;;;6117265;28;82972;-54
2023/02/07 06:46:27;;;;;;;48.00;28.75;;;21.60;30.90;;;;;;6108942;28;83387;-51
2023/02/07 06:49:28;;;;;;;46.28;28.90;;;21.50;30.60;;;;;;6112122;28;85592;-52
2023/02/07 06:52:28;;;;;;;51.28;29.88;;;21.40;30.40;;;;;;6113090;28;83580;-50
2023/02/07 06:55:29;;;;;;;54.33;30.27;;;21.40;30.20;;;;;;6114993;28;83242;-53
2023/02/07 06:58:29;;;;;;;51.75;30.98;;;21.40;30.10;;;;;;6109282;28;83133;-53
2023/02/07 07:01:30;;;;;;;50.88;29.90;;;21.30;29.90;;;;;;6111412;28;83419;-51
2023/02/07 07:04:30;;;;;;;52.08;30.90;;;21.30;29.70;;;;;;6144812;28;83040;-52
2023/02/07 07:07:31;;;;;;;48.95;30.05;;;21.30;29.60;;;;;;6141257;28;85719;-53
2023/02/07 07:10:32;;;;;;;53.67;30.60;;;21.20;29.50;;;;;;6123575;28;83589;-52
2023/02/07 07:13:32;;;;;;;49.10;30.30;;;21.20;29.40;;;;;;6123189;28;83397;-53
2023/02/07 07:16:33;;;;;;;50.03;28.67;;;21.10;29.30;;;;;;6121725;28;83284;-54
2023/02/07 07:19:33;;;;;;;49.00;29.42;;;21.10;29.50;;;;;;6126633;28;83705;-51
2023/02/07 07:22:34;;;;;;;48.90;29.27;;;21.10;29.40;;;;;;6126481;28;83138;-53
2023/02/07 07:25:34;;;;;;;47.97;28.42;;;21.10;29.30;;;;;;6134344;28;83111;-53
2023/02/07 07:28:35;;;;;;;43.72;26.48;;;21.10;29.30;;;;;;6134719;28;83217;-53
2023/02/07 07:31:35;;;;;;;42.65;27.20;;;21.00;29.30;;;;;;6125721;28;83220;-52
2023/02/07 07:34:36;;;;;;;43.95;26.55;;;21.00;29.30;;;;;;6130123;28;83621;-54
2023/02/07 07:37:36;;;;;;;39.88;25.08;;;21.00;29.20;;;;;;6135234;28;82947;-51
2023/02/07 07:40:37;;;;;;;40.25;24.48;;;21.00;29.20;;;;;;6124962;28;83458;-50
2023/02/07 07:43:37;;;;;;;42.50;25.15;;;20.90;29.10;;;;;;6139462;28;83849;-53
2023/02/07 07:46:38;;;;;;;39.25;24.33;;;20.90;29.30;;;;;;6126847;28;86330;-60
2023/02/07 07:49:38;;;;;;;43.67;24.83;;;20.90;29.10;;;;;;6144893;28;84630;-59
2023/02/07 07:52:39;;;;;;;41.92;24.50;;;20.90;29.20;;;;;;6129664;28;84398;-59
2023/02/07 07:55:39;;;;;;;39.17;25.05;;;20.90;29.20;;;;;;6125587;28;82817;-59
2023/02/07 07:58:40;;;;;;;39.35;24.65;;;20.90;29.30;;;;;;6125512;28;83278;-60
2023/02/07 08:01:40;;;;;;;42.70;26.05;;;21.00;29.60;;;;;;6108630;28;89663;-60
2023/02/07 08:04:41;;;;;;;48.45;27.02;;;21.00;29.80;;;;;;6125829;28;84167;-52
2023/02/07 08:07:41;;;;;;;49.47;27.48;;;21.10;29.70;;;;;;6126618;28;83318;-52
2023/02/07 08:10:42;;;;;;;45.10;28.20;;;21.10;29.60;;;;;;6135961;28;83340;-49
2023/02/07 08:13:43;;;;;;;46.40;26.85;;;21.20;29.60;;;;;;6127140;28;83233;-50
2023/02/07 08:16:43;;;;;;;47.55;27.92;;;21.20;29.70;;;;;;6125644;28;84578;-51
2023/02/07 08:19:44;;;;;;;47.42;28.17;;;21.30;29.60;;;;;;6126861;28;82806;-54
2023/02/07 08:22:44;;;;;;;48.22;26.40;;;21.40;29.70;;;;;;6126523;28;83031;-51
2023/02/07 08:25:45;;;;;;;45.90;25.25;;;21.40;29.70;;;;;;6133571;28;82784;-49
2023/02/07 08:28:47;;;;;;;43.92;26.38;;;21.50;29.80;;;;;;6128916;28;83329;-51
2023/02/07 08:31:48;;;;;;;47.35;26.08;;;21.50;29.70;;;;;;6129504;28;84494;-50
2023/02/07 08:34:49;;;;;;;54.42;27.52;;;21.50;29.60;;;;;;6126216;28;83548;-47
2023/02/07 08:37:49;;;;;;;43.90;24.63;;;21.60;29.80;;;;;;6139226;28;83260;-52
2023/02/07 08:40:50;;;;;;;44.30;26.70;;;21.60;29.80;;;;;;6126702;28;83224;-53
2023/02/07 08:43:50;;;;;;;46.40;26.38;;;21.60;29.80;;;;;;6126424;28;90236;-52
2023/02/07 08:46:51;;;;;;;54.38;25.70;;;21.70;29.70;;;;;;6117807;28;83275;-48
2023/02/07 08:49:52;;;;;;;41.47;25.00;;;21.70;29.80;;;;;;6122677;28;83228;-52
2023/02/07 08:52:52;;;;;;;40.78;24.42;;;21.70;29.70;;;;;;6125989;28;83773;-53
2023/02/07 08:55:53;;;;;;;58.72;26.55;;;21.70;29.70;;;;;;6111319;28;83001;-50
2023/02/07 08:58:54;;;;;;;40.20;25.30;;;21.70;29.60;;;;;;6101163;28;84542;-49
2023/02/07 09:01:54;;;;;;;43.92;23.38;;;21.70;29.60;;;;;;6102956;28;84267;-48
2023/02/07 09:04:55;;;;;;;47.05;24.05;;;21.80;29.70;;;;;;6127499;28;83014;-50
2023/02/07 09:07:55;;;;;;;40.50;24.40;;;21.80;29.50;;;;;;6103451;28;84992;-50
2023/02/07 09:10:56;;;;;;;38.90;22.73;;;21.80;29.90;;;;;;6119806;28;84414;-49
2023/02/07 09:13:56;;;;;;;40.83;22.40;;;21.80;30.00;;;;;;6104701;28;83767;-50
2023/02/07 09:16:57;;;;;;;40.42;23.52;;;21.80;29.90;;;;;;6115570;28;83697;-53
2023/02/07 09:19:57;;;;;;;36.10;21.75;;;21.80;29.90;;;;;;6107902;28;84308;-52
2023/02/07 09:23:16;;;;;;;34.13;21.25;;;21.80;29.80;;;;;;6130065;28;83922;-51
2023/02/07 09:26:17;;;;;;;36.58;21.52;;;21.80;29.70;;;;;;6105708;28;83770;-50
2023/02/07 09:29:17;;;;;;;44.10;22.88;;;21.90;29.70;;;;;;6115116;28;85400;-53
2023/02/07 09:32:18;;;;;;;39.08;22.95;;;21.90;29.80;;;;;;6107195;28;85971;-53
2023/02/07 09:35:18;;;;;;;36.25;21.38;;;21.90;29.80;;;;;;6115791;28;83312;-52
2023/02/07 09:38:19;;;;;;;37.78;21.77;;;21.90;29.80;;;;;;6113799;28;83172;-50
2023/02/07 09:41:19;;;;;;;35.85;22.67;;;22.00;30.00;;;;;;6105238;28;84841;-51
2023/02/07 09:44:22;;;;;;;39.22;21.52;;;21.90;29.80;;;;;;6118196;28;83073;-52
2023/02/07 09:47:23;;;;;;;42.58;22.10;;;21.90;29.90;;;;;;6116583;28;83061;-53
2023/02/07 09:50:23;;;;;;;31.52;19.83;;;22.00;29.90;;;;;;6115782;28;83632;-51
2023/02/07 09:53:24;;;;;;;36.58;21.98;;;22.00;29.80;;;;;;6120958;28;83132;-55
2023/02/07 09:56:24;;;;;;;36.10;22.38;;;22.00;29.90;;;;;;6116924;28;85854;-52
2023/02/07 09:59:25;;;;;;;35.80;21.75;;;22.00;29.90;;;;;;6115324;28;83266;-50
2023/02/07 10:02:25;;;;;;;38.08;21.05;;;22.00;30.00;;;;;;6120844;28;83411;-54
2023/02/07 10:05:26;;;;;;;35.13;21.52;;;22.00;29.90;;;;;;6111536;28;84268;-53
2023/02/07 10:08:26;;;;;;;36.50;21.75;;;22.00;29.90;;;;;;6122395;28;82864;-53
2023/02/07 10:11:27;;;;;;;37.88;20.27;;;22.00;30.00;;;;;;6123717;28;83013;-53
2023/02/07 10:14:27;;;;;;;39.33;20.40;;;22.00;29.90;;;;;;6128941;28;84098;-51
2023/02/07 10:17:28;;;;;;;36.22;20.95;;;22.10;30.00;;;;;;6127486;28;83148;-53
2023/02/07 10:20:28;;;;;;;36.17;20.55;;;22.10;30.00;;;;;;6141741;28;83162;-50
2023/02/07 10:23:29;;;;;;;46.05;22.88;;;22.10;30.00;;;;;;6118220;28;82806;-49
2023/02/07 10:26:31;;;;;;;42.55;21.60;;;22.10;30.00;;;;;;6120842;28;84096;-51
2023/02/07 10:29:32;;;;;;;43.67;23.00;;;22.10;29.90;;;;;;6128109;28;83121;-51
2023/02/07 10:32:32;;;;;;;46.58;21.92;;;22.10;30.00;;;;;;6119076;28;83200;-53
2023/02/07 10:35:33;;;;;;;48.28;24.08;;;22.10;30.00;;;;;;6121710;28;83015;-55
2023/02/07 10:38:34;;;;;;;43.75;21.70;;;22.10;29.90;;;;;;6121299;28;83148;-53
2023/02/07 10:41:36;;;;;;;41.47;22.30;;;22.10;29.80;;;;;;6116718;28;85817;-53
2023/02/07 10:44:37;;;;;;;41.00;22.08;;;22.10;29.90;;;;;;6130212;28;83443;-53
2023/02/07 10:47:37;;;;;;;43.83;24.77;;;22.10;29.90;;;;;;6125038;28;83866;-51
2023/02/07 10:50:38;;;;;;;41.13;24.15;;;22.10;29.80;;;;;;6124809;28;83407;-51
2023/02/07 10:53:38;;;;;;;38.85;22.35;;;22.10;29.70;;;;;;6114368;28;84308;-54
2023/02/07 10:56:39;;;;;;;40.47;23.95;;;22.10;29.80;;;;;;6105798;28;83555;-51
2023/02/07 10:59:44;;;;;;;42.50;23.88;;;22.10;29.70;;;;;;6113516;28;83978;-50
2023/02/07 11:02:47;;;;;;;38.72;22.98;;;22.10;29.80;;;;;;6128930;28;83686;-52
2023/02/07 11:05:48;;;;;;;42.63;22.05;;;22.10;30.20;;;;;;6110329;28;83260;-55
2023/02/07 11:08:48;;;;;;;41.90;21.55;;;22.10;30.00;;;;;;6117313;28;84466;-52
2023/02/07 11:11:49;;;;;;;32.60;19.95;;;22.10;30.00;;;;;;6133589;28;84243;-52
2023/02/07 11:14:50;;;;;;;37.67;22.40;;;22.10;29.90;;;;;;6113057;28;83732;-50
2023/02/07 11:17:50;;;;;;;32.55;20.85;;;22.10;29.90;;;;;;6115117;28;83240;-51
2023/02/07 11:20:52;;;;;;;37.70;21.63;;;22.20;29.90;;;;;;6117545;28;84017;-48
2023/02/07 11:23:52;;;;;;;37.55;21.90;;;22.20;30.00;;;;;;6108213;28;83379;-51
2023/02/07 11:26:53;;;;;;;32.78;20.92;;;22.10;29.90;;;;;;6122251;28;83903;-53
2023/02/07 11:29:53;;;;;;;35.83;21.73;;;22.20;30.00;;;;;;6117939;28;83298;-53
2023/02/07 11:32:54;;;;;;;31.73;19.98;;;22.20;30.00;;;;;;6111342;28;83176;-54
2023/02/07 11:35:54;;;;;;;33.05;20.90;;;22.20;30.00;;;;;;6144466;28;85138;-51
2023/02/07 11:38:55;;;;;;;36.08;21.30;;;22.20;30.00;;;;;;6121977;28;88470;-53
2023/02/07 11:41:56;;;;;;;32.65;20.30;;;22.20;30.00;;;;;;6123129;28;88367;-52
2023/02/07 11:44:56;;;;;;;32.38;20.13;;;22.20;29.80;;;;;;6121748;28;83097;-52
2023/02/07 11:47:57;;;;;;;37.97;21.08;;;22.20;29.90;;;;;;6114626;28;86209;-54
2023/02/07 11:50:57;;;;;;;35.25;21.73;;;22.20;29.80;;;;;;6120916;28;83879;-54
2023/02/07 11:53:58;;;;;;;37.47;23.10;;;22.20;29.80;;;;;;6111298;28;84793;-52
2023/02/07 11:56:58;;;;;;;39.92;22.60;;;22.20;29.70;;;;;;6122016;28;83944;-54
2023/02/07 12:00:00;;;;;;;34.28;22.50;;;22.30;29.80;;;;;;6116168;28;84163;-53
2023/02/07 12:03:00;;;;;;;35.30;21.95;;;22.30;29.90;;;;;;6119019;28;84379;-51
2023/02/07 12:06:01;;;;;;;40.00;23.77;;;22.30;30.00;;;;;;6125267;28;86110;-54
2023/02/07 12:09:02;;;;;;;34.80;22.70;;;22.30;30.00;;;;;;6126884;28;83535;-51
2023/02/07 12:12:02;;;;;;;40.72;24.70;;;22.30;30.10;;;;;;6125635;28;83114;-54
2023/02/07 12:15:03;;;;;;;38.75;24.77;;;22.40;30.40;;;;;;6130698;28;84245;-55
2023/02/07 12:18:04;;;;;;;41.65;24.08;;;22.40;30.60;;;;;;6122864;28;82869;-53
2023/02/07 12:21:04;;;;;;;41.55;25.35;;;22.40;30.60;;;;;;6121334;28;83664;-52
2023/02/07 12:24:05;;;;;;;41.33;25.13;;;22.40;30.60;;;;;;6145173;28;84405;-51
2023/02/07 12:27:06;;;;;;;40.75;25.15;;;22.40;30.70;;;;;;6122549;28;89192;-53
2023/02/07 12:30:06;;;;;;;40.28;24.92;;;22.40;30.70;;;;;;6119955;28;83559;-52
2023/02/07 12:33:07;;;;;;;42.47;24.73;;;22.40;31.00;;;;;;6124763;28;84166;-52
2023/02/07 12:36:09;;;;;;;42.83;24.83;;;22.40;31.40;;;;;;6135123;28;83165;-52
2023/02/07 12:39:09;;;;;;;44.17;25.40;;;22.40;31.40;;;;;;6117702;28;83546;-49
2023/02/07 12:42:10;;;;;;;41.75;24.80;;;22.40;31.40;;;;;;6112130;28;83731;-53
2023/02/07 12:45:10;;;;;;;39.22;23.27;;;22.40;31.70;;;;;;6118494;28;83611;-53
2023/02/07 12:48:11;;;;;;;40.20;24.02;;;22.50;31.80;;;;;;6115286;28;83219;-54
2023/02/07 12:51:11;;;;;;;40.47;23.45;;;22.50;32.00;;;;;;6114567;28;83549;-53
2023/02/07 12:54:12;;;;;;;36.05;23.35;;;22.50;32.00;;;;;;6119115;28;83374;-52
2023/02/07 12:57:12;;;;;;;39.35;24.25;;;22.50;32.10;;;;;;6114627;28;83549;-60
2023/02/07 13:00:13;;;;;;;45.65;25.45;;;22.50;32.00;;;;;;6116059;28;83437;-60
2023/02/07 13:03:14;;;;;;;46.72;26.05;;;22.50;31.80;;;;;;6119785;28;83325;-61
2023/02/07 13:06:14;;;;;;;41.75;24.98;;;22.50;32.30;;;;;;6115446;28;84042;-62
2023/02/07 13:09:15;;;;;;;40.92;24.25;;;22.50;32.00;;;;;;6114789;28;83229;-61
2023/02/07 13:12:16;;;;;;;47.13;25.98;;;22.40;32.10;;;;;;6112813;28;84215;-61
2023/02/07 13:15:16;;;;;;;41.33;26.00;;;22.50;32.30;;;;;;6117856;28;83581;-61
2023/02/07 13:18:17;;;;;;;45.90;26.90;;;22.50;32.40;;;;;;6113079;28;85355;-61
2023/02/07 13:21:18;;;;;;;46.97;26.05;;;22.40;32.30;;;;;;6115507;28;84679;-63
2023/02/07 13:24:18;;;;;;;42.33;26.40;;;22.40;32.30;;;;;;6112263;28;84328;-61
2023/02/07 13:27:19;;;;;;;46.13;27.20;;;22.40;32.30;;;;;;6106355;28;83351;-61
2023/02/07 13:30:20;;;;;;;50.90;27.77;;;22.40;32.20;;;;;;6095793;28;84010;-62
2023/02/07 13:33:21;;;;;;;42.45;26.58;;;22.40;32.90;;;;;;6101726;28;83571;-62
2023/02/07 13:36:22;;;;;;;43.08;26.35;;;22.40;32.20;;;;;;6115127;28;85478;-60
2023/02/07 13:39:22;;;;;;;42.70;26.40;;;22.40;32.20;;;;;;6130960;28;83063;-60
2023/02/07 13:42:23;;;;;;;44.03;26.83;;;22.40;32.20;;;;;;6101827;28;88048;-60
2023/02/07 13:45:23;;;;;;;44.35;26.70;;;22.40;32.00;;;;;;6131306;28;83098;-60
2023/02/07 13:48:24;;;;;;;49.25;27.27;;;22.40;31.90;;;;;;6120285;28;82875;-59
2023/02/07 13:51:24;;;;;;;48.67;28.75;;;22.40;31.70;;;;;;6121419;28;83053;-61
2023/02/07 13:54:25;;;;;;;51.60;30.17;;;22.40;31.60;;;;;;6103600;28;84701;-60
2023/02/07 14:00:45;;;;;;;49.22;28.98;;;22.30;31.40;;;;;;6114385;28;83507;-60
2023/02/07 14:03:45;;;;;;;55.55;31.10;;;22.40;31.40;;;;;;6118767;28;82957;-59
2023/02/07 14:06:46;;;;;;;53.60;30.60;;;22.30;31.40;;;;;;6122887;28;83689;-60
2023/02/07 14:09:46;;;;;;;50.78;30.90;;;22.40;31.40;;;;;;6123891;28;83360;-61
2023/02/07 14:12:47;;;;;;;48.28;30.55;;;22.30;31.30;;;;;;6116657;28;83487;-60
2023/02/07 14:15:48;;;;;;;51.58;31.55;;;22.30;31.20;;;;;;6123906;28;83212;-60
2023/02/07 14:18:48;;;;;;;54.85;32.58;;;22.30;31.60;;;;;;6126129;28;84030;-60
2023/02/07 14:21:49;;;;;;;56.90;32.38;;;22.30;31.50;;;;;;6127208;28;83565;-61
2023/02/07 14:24:49;;;;;;;52.63;31.50;;;22.40;31.40;;;;;;6117917;28;83433;-59
2023/02/07 14:27:50;;;;;;;55.45;33.08;;;22.40;31.60;;;;;;6097925;28;86255;-59
2023/02/07 14:30:50;;;;;;;56.83;32.05;;;22.40;31.70;;;;;;6114976;28;88658;-62
2023/02/07 14:33:51;;;;;;;58.00;33.65;;;22.40;31.70;;;;;;6110034;28;89726;-64
2023/02/07 14:36:54;;;;;;;54.70;30.98;;;22.40;31.80;;;;;;6110135;28;82747;-63
2023/02/07 14:39:55;;;;;;;60.78;35.05;;;22.40;31.90;;;;;;6111140;28;83007;-64
2023/02/07 14:42:55;;;;;;;63.78;35.08;;;22.40;32.00;;;;;;6106330;28;83074;-63
2023/02/07 14:45:56;;;;;;;53.42;33.17;;;22.40;33.20;;;;;;6119564;28;90816;-65
2023/02/07 14:48:56;;;;;;;56.42;32.60;;;22.40;33.40;;;;;;6117434;28;86660;-63
2023/02/07 14:51:57;;;;;;;55.13;32.90;;;22.50;33.40;;;;;;6117862;28;83183;-63
2023/02/07 14:54:57;;;;;;;55.25;32.20;;;22.40;33.70;;;;;;6124964;28;86155;-61
2023/02/07 14:57:58;;;;;;;57.88;33.17;;;22.40;33.30;;;;;;6121655;28;83413;-59
2023/02/07 15:00:58;;;;;;;53.47;32.05;;;22.50;33.00;;;;;;6089213;28;85760;-60
2023/02/07 15:03:59;;;;;;;61.40;34.10;;;22.40;32.80;;;;;;6093385;28;84972;-62
2023/02/07 15:07:00;;;;;;;57.17;33.15;;;22.50;33.10;;;;;;6091545;28;83829;-63
2023/02/07 15:10:00;;;;;;;54.75;32.60;;;22.50;33.20;;;;;;6098988;28;84058;-63
2023/02/07 15:13:01;;;;;;;60.42;34.30;;;22.50;33.40;;;;;;6100618;28;84267;-62
2023/02/07 15:16:01;;;;;;;59.45;35.13;;;22.50;33.40;;;;;;6102385;28;82833;-61
2023/02/07 15:19:02;;;;;;;56.83;33.53;;;22.50;33.50;;;;;;6102750;28;85155;-63
2023/02/07 15:22:02;;;;;;;56.55;33.65;;;22.50;33.40;;;;;;6097249;28;86326;-63